Observations for Trim Market St
| Time | AQI | Temp °C | Hum % | Pres Pa | CO μg/m³ | H₂S μg/m³ | NO μg/m³ | NO₂ μg/m³ | O₃ μg/m³ | SO₂ μg/m³ | PM1 μg/m³ | PM2.5 μg/m³ | PM10 μg/m³ |
|---|---|---|---|---|---|---|---|---|---|---|---|---|---|
| Tuesday 25 August 2026 | |||||||||||||
| 06:33 | 2 | 15.4 | 75 | 40,855 | 0.3 | 0 | 1.86 | 17.77 | 39.84 | 0 | 2.14 | 3.77 | 6.34 |
| 06:31 | 2 | 15.4 | 75 | 41,115 | 0.36 | 0 | 1.87 | 24.07 | 32.73 | 0 | 1.43 | 3.29 | 6.34 |
| 06:30 | 2 | 15.3 | 75 | 41,338 | 0.59 | 0 | 1.8 | 24.69 | 31.16 | 0 | 2.14 | 3.77 | 6.34 |
| 06:27 | 2 | 15.3 | 75 | 42,050 | 0.81 | 0 | 1.8 | 16.42 | 41.26 | 0 | 1.43 | 2.82 | 5.14 |
| 06:26 | 2 | 15.4 | 75 | 42,138 | 0.72 | 0 | 1.81 | 15.94 | 41.47 | 0 | 1.43 | 2.82 | 5.74 |
| 06:25 | 2 | 15.4 | 75 | 42,251 | 0.6 | 0 | 1.81 | 15.94 | 44.23 | 0 | 1.43 | 3.78 | 8.13 |
| 06:24 | 2 | 15.3 | 75 | 42,416 | 0.6 | 0 | 1.79 | 18.45 | 41.68 | 0 | 1.43 | 3.3 | 6.93 |
| 06:23 | 2 | 15.4 | 75 | 42,628 | 0.49 | 0 | 1.77 | 12.38 | 31.68 | 0 | 0.71 | 2.82 | 5.14 |
| 06:21 | 2 | 15.3 | 75 | 43,063 | 0.39 | 0 | 1.5 | 13.22 | 46.4 | 0 | 1.43 | 3.78 | 6.34 |
| 06:18 | 2 | 15.3 | 75 | 43,420 | 0.28 | 0 | 1.54 | 14.12 | 46.42 | 0 | 0.71 | 2.83 | 5.74 |
| 06:17 | 2 | 15.3 | 75 | 43,656 | 0.29 | 0 | 1.61 | 12.08 | 43.54 | 0 | 0.71 | 2.35 | 5.74 |
| 06:16 | 2 | 15.3 | 75 | 43,909 | 0.29 | 0 | 1.61 | 18.37 | 43.98 | 0 | 2.14 | 2.83 | 5.14 |
| 06:08 | 2 | 15.3 | 74 | 45,430 | 0.28 | 0 | 1.62 | 11.03 | 44.26 | 0 | 0.71 | 2.84 | 5.73 |
| 06:04 | 2 | 15.4 | 74 | 45,763 | 0.28 | 0 | 1.64 | 10.49 | 46.72 | 0 | 0.71 | 2.85 | 5.13 |
| 06:03 | 2 | 15.4 | 74 | 45,863 | 0.28 | 0 | 1.65 | 10.23 | 47.04 | 0 | 1.43 | 2.85 | 5.73 |
| 06:02 | 2 | 15.4 | 74 | 46,008 | 0.28 | 0 | 1.5 | 10.5 | 45.26 | 0 | 1.43 | 2.37 | 5.73 |
| 06:01 | 2 | 15.4 | 74 | 46,193 | 0.28 | 0 | 1.34 | 10.5 | 45.09 | 0 | 2.85 | 3.33 | 5.73 |
| 06:00 | 2 | 15.4 | 74 | 46,297 | 0.28 | 0 | 1.42 | 9.77 | 46.12 | 0 | 1.43 | 2.85 | 6.33 |
| 05:59 | 2 | 15.4 | 74 | 46,443 | 0.29 | 0 | 1.5 | 10.17 | 46.76 | 0 | 1.43 | 2.85 | 6.33 |
| 05:58 | 2 | 15.4 | 74 | 46,575 | 0.32 | 0 | 1.6 | 9.56 | 47.53 | 0 | 1.43 | 3.33 | 6.33 |